Time;durP1;ratioP1;P1;durP2;ratioP2;P2;SDS_P1;SDS_P2;PMS_P1;PMS_P2;Temp;Humidity;BMP_temperature;BMP_pressure;BME280_temperature;BME280_humidity;BME280_pressure;Samples;Min_cycle;Max_cycle;Signal;HPM_P1;HPM_P2
2022/06/04 00:00:18;;;;;;;;;;;;;17.20;97878.20;;;;108704;1270;42393;-65
2022/06/04 00:03:02;;;;;;;28.90;14.30;;;;;17.20;97872.40;;;;108807;1268;41169;-66
2022/06/04 00:05:33;;;;;;;;;;;;;17.20;97868.80;;;;108826;1267;42629;-65
2022/06/04 00:08:06;;;;;;;39.30;20.60;;;;;17.08;97868.00;;;;108881;1269;41218;-65
2022/06/04 00:16:30;;;;;;;41.70;22.10;;;;;16.64;97876.20;;;;108880;1267;41208;-66
2022/06/04 00:19:02;;;;;;;46.40;23.00;;;;;16.70;97877.00;;;;108871;1267;41189;-65
2022/06/04 00:21:33;;;;;;;34.50;17.90;;;;;16.70;97875.00;;;;108702;1270;41287;-65
2022/06/04 00:24:06;;;;;;;33.70;18.60;;;;;16.70;97877.20;;;;108886;1270;41385;-66
2022/06/04 00:26:37;;;;;;;28.40;14.00;;;;;16.74;97876.80;;;;108945;1268;41287;-66
2022/06/04 00:29:09;;;;;;;25.10;13.40;;;;;16.78;97877.80;;;;108960;1267;41278;-65
2022/06/04 00:31:40;;;;;;;33.00;16.10;;;;;16.78;97877.80;;;;108870;1268;41639;-64
2022/06/04 00:34:15;;;;;;;39.10;19.70;;;;;16.80;97880.40;;;;108827;1269;41200;-66
2022/06/04 00:36:46;;;;;;;37.80;19.60;;;;;16.80;97878.00;;;;108762;1269;41634;-65
2022/06/04 00:39:17;;;;;;;36.90;20.30;;;;;16.80;97874.80;;;;108950;1268;41614;-65
2022/06/04 00:41:56;;;;;;;;;;;;;16.70;97871.80;;;;108831;1269;41508;-66
2022/06/04 00:44:30;;;;;;;45.80;24.00;;;;;16.70;97867.20;;;;108890;1267;41170;-66
2022/06/04 00:47:13;;;;;;;46.80;24.30;;;;;16.70;97872.00;;;;108840;1269;41991;-65
2022/06/04 00:49:44;;;;;;;53.60;26.30;;;;;16.70;97874.40;;;;108863;1266;41195;-66
2022/06/04 00:52:14;;;;;;;;;;;;;16.70;97873.40;;;;108868;1268;41165;-65
2022/06/04 00:54:46;;;;;;;43.50;22.90;;;;;16.70;97877.60;;;;108887;1270;41177;-66
2022/06/04 00:57:32;;;;;;;47.70;24.80;;;;;16.70;97873.60;;;;108819;1268;41211;-66
2022/06/04 01:00:02;;;;;;;51.40;26.80;;;;;16.70;97871.80;;;;108880;1267;41177;-66
2022/06/04 01:02:42;;;;;;;40.50;22.80;;;;;16.70;97872.40;;;;108688;1267;41675;-66
2022/06/04 01:05:45;;;;;;;39.90;20.00;;;;;16.70;97873.20;;;;108886;1267;41363;-65
2022/06/04 01:08:27;;;;;;;35.50;17.80;;;;;16.58;97869.20;;;;108817;1267;41239;-66
2022/06/04 01:11:15;;;;;;;33.50;15.70;;;;;16.50;97865.00;;;;108913;1268;41203;-66
2022/06/04 01:14:12;;;;;;;27.10;13.70;;;;;16.44;97866.40;;;;108862;1268;41670;-66
2022/06/04 01:16:58;;;;;;;24.30;13.40;;;;;16.40;97858.20;;;;108892;1270;42069;-65
2022/06/04 01:19:58;;;;;;;29.00;15.40;;;;;16.40;97855.20;;;;108974;1268;42386;-65
2022/06/04 01:23:05;;;;;;;27.20;12.80;;;;;16.40;97852.80;;;;108931;1267;42422;-66
2022/06/04 01:25:41;;;;;;;25.20;13.70;;;;;16.38;97854.40;;;;108909;1269;41281;-65
2022/06/04 01:28:15;;;;;;;48.40;25.30;;;;;16.34;97850.40;;;;108858;1267;41769;-65
2022/06/04 01:30:52;;;;;;;47.30;24.20;;;;;16.30;97852.20;;;;108672;1270;41178;-66
2022/06/04 01:33:41;;;;;;;49.80;24.90;;;;;16.32;97847.20;;;;108780;1267;42532;-66
2022/06/04 01:36:19;;;;;;;40.20;19.80;;;;;16.26;97849.00;;;;108997;1270;41635;-66
2022/06/04 01:39:03;;;;;;;31.70;16.50;;;;;16.20;97848.20;;;;108773;1270;41756;-64
2022/06/04 01:41:41;;;;;;;25.30;13.60;;;;;16.20;97842.40;;;;108882;1267;41418;-64
2022/06/04 01:44:18;;;;;;;23.20;11.50;;;;;16.20;97841.00;;;;109055;1267;41179;-66
2022/06/04 01:46:53;;;;;;;22.50;10.70;;;;;16.20;97836.40;;;;108914;1267;41185;-66
2022/06/04 01:49:27;;;;;;;18.20;9.20;;;;;16.20;97837.20;;;;108820;1270;41290;-66
2022/06/04 01:52:02;;;;;;;15.90;8.40;;;;;16.20;97829.60;;;;108839;1267;41278;-65
2022/06/04 01:54:39;;;;;;;16.60;8.30;;;;;16.20;97834.40;;;;108777;1267;41459;-66
2022/06/04 01:57:13;;;;;;;21.80;10.80;;;;;16.20;97831.80;;;;108824;1269;41507;-66
2022/06/04 01:59:46;;;;;;;31.50;14.80;;;;;16.20;97833.40;;;;108813;1267;41180;-65
2022/06/04 02:02:20;;;;;;;36.20;17.10;;;;;16.20;97829.80;;;;108770;1270;41180;-66
2022/06/04 02:04:54;;;;;;;50.10;25.80;;;;;16.20;97830.40;;;;108749;1267;41191;-66
2022/06/04 02:07:32;;;;;;;50.60;26.90;;;;;16.18;97830.40;;;;108715;1267;41150;-65
2022/06/04 02:10:24;;;;;;;45.20;22.50;;;;;16.10;97833.00;;;;108832;1270;41188;-66
2022/06/04 02:13:02;;;;;;;56.90;28.50;;;;;16.10;97838.00;;;;108938;1266;41728;-64
2022/06/04 02:15:39;;;;;;;61.80;32.20;;;;;16.06;97838.00;;;;108809;1268;42476;-65
2022/06/04 02:18:11;;;;;;;47.30;22.90;;;;;16.10;97842.60;;;;108880;1267;41149;-65
2022/06/04 02:20:41;;;;;;;70.10;33.70;;;;;16.10;97841.80;;;;108837;1267;42657;-65
2022/06/04 02:23:11;;;;;;;79.90;37.90;;;;;16.04;97838.60;;;;108868;1267;41288;-64
2022/06/04 02:25:42;;;;;;;;;;;;;16.00;97839.20;;;;108854;1267;41448;-65
2022/06/04 02:28:12;;;;;;;55.20;27.20;;;;;15.98;97844.60;;;;108867;1266;41275;-65
2022/06/04 02:31:20;;;;;;;73.80;36.60;;;;;16.00;97841.40;;;;108886;1267;41592;-65
2022/06/04 02:34:15;;;;;;;81.20;33.00;;;;;16.00;97839.80;;;;108917;1268;41179;-66
2022/06/04 02:37:20;;;;;;;45.80;21.30;;;;;16.08;97840.40;;;;108779;1270;41285;-67
2022/06/04 02:40:06;;;;;;;29.20;13.10;;;;;16.00;97844.60;;;;108881;1267;41217;-65
2022/06/04 02:43:04;;;;;;;33.30;15.10;;;;;16.00;97839.40;;;;108835;1268;41185;-65
2022/06/04 02:45:44;;;;;;;31.70;15.00;;;;;15.96;97838.80;;;;108883;1267;41762;-65
2022/06/04 02:48:26;;;;;;;26.70;13.10;;;;;15.90;97845.80;;;;108845;1267;42080;-65
2022/06/04 02:51:04;;;;;;;26.90;12.80;;;;;16.00;97848.60;;;;108871;1267;41290;-65
2022/06/04 02:53:35;;;;;;;25.50;11.50;;;;;16.08;97849.80;;;;108769;1270;41775;-66
2022/06/04 02:56:21;;;;;;;24.20;12.30;;;;;16.10;97854.20;;;;108903;1267;41150;-66
2022/06/04 02:58:56;;;;;;;27.70;12.90;;;;;16.14;97857.40;;;;108756;1268;41644;-66
2022/06/04 03:01:29;;;;;;;45.30;20.00;;;;;16.20;97854.20;;;;108851;1269;41337;-65
2022/06/04 03:04:01;;;;;;;36.50;16.80;;;;;16.26;97848.20;;;;108800;1267;41201;-65
2022/06/04 03:06:32;;;;;;;37.70;17.20;;;;;16.30;97848.00;;;;108883;1267;41264;-65
2022/06/04 03:09:03;;;;;;;;;;;;;16.40;97844.40;;;;108865;1267;41809;-65
2022/06/04 03:11:59;;;;;;;;;;;;;16.40;97848.40;;;;108860;1268;41346;-65
2022/06/04 03:14:29;;;;;;;53.80;25.70;;;;;16.40;97851.00;;;;108889;1270;41478;-64
2022/06/04 03:16:59;;;;;;;133.70;60.80;;;;;16.40;97855.40;;;;108915;1267;41395;-66
2022/06/04 03:19:29;;;;;;;84.40;35.10;;;;;16.40;97856.60;;;;108834;1267;42315;-65
2022/06/04 03:22:00;;;;;;;37.70;17.40;;;;;16.28;97860.40;;;;108855;1268;41236;-65
2022/06/04 03:24:30;;;;;;;40.40;19.90;;;;;16.20;97866.40;;;;108781;1268;40783;-64
2022/06/04 03:27:00;;;;;;;33.00;16.10;;;;;16.26;97865.40;;;;108801;1270;41282;-65
2022/06/04 03:29:38;;;;;;;32.80;17.10;;;;;16.30;97865.00;;;;108865;1267;41808;-65
2022/06/04 03:32:11;;;;;;;31.90;15.60;;;;;16.40;97864.80;;;;108741;1267;41281;-65
2022/06/04 03:34:41;;;;;;;36.60;17.00;;;;;16.50;97868.60;;;;108840;1267;41215;-66
2022/06/04 03:37:12;;;;;;;37.80;17.20;;;;;16.58;97861.40;;;;108817;1267;41177;-65
2022/06/04 03:39:41;;;;;;;34.80;17.20;;;;;16.60;97866.60;;;;108759;1267;42201;-64
2022/06/04 03:42:16;;;;;;;30.00;15.00;;;;;16.60;97867.20;;;;108978;1267;40743;-65
2022/06/04 03:44:47;;;;;;;23.60;11.40;;;;;16.70;97862.20;;;;108898;1267;41854;-65
2022/06/04 03:47:18;;;;;;;19.10;9.80;;;;;16.80;97864.20;;;;108972;1267;41765;-65
2022/06/04 03:49:55;;;;;;;18.10;8.50;;;;;16.90;97858.60;;;;108741;1269;41749;-66
2022/06/04 03:52:25;;;;;;;13.80;6.90;;;;;17.10;97857.40;;;;108744;1267;41603;-65
2022/06/04 03:54:56;;;;;;;28.00;12.90;;;;;17.20;97856.40;;;;108809;1267;41290;-64
2022/06/04 03:57:42;;;;;;;14.40;7.70;;;;;17.38;97855.40;;;;108619;1267;41166;-65
2022/06/04 04:00:19;;;;;;;16.10;8.00;;;;;17.46;97850.20;;;;108674;1267;41217;-65
2022/06/04 04:02:52;;;;;;;14.80;7.10;;;;;17.60;97850.20;;;;108879;1267;40918;-65
2022/06/04 04:05:28;;;;;;;16.30;7.70;;;;;17.80;97849.40;;;;108721;1268;41176;-65
2022/06/04 04:07:59;;;;;;;15.90;8.60;;;;;18.00;97849.40;;;;108750;1268;41286;-65
2022/06/04 04:10:30;;;;;;;25.70;8.30;;;;;18.18;97847.40;;;;108815;1267;41180;-64
2022/06/04 04:12:59;;;;;;;15.30;7.90;;;;;18.38;97845.40;;;;108710;1270;41164;-65
2022/06/04 04:15:29;;;;;;;17.00;8.10;;;;;18.64;97842.20;;;;108809;1266;41200;-64
2022/06/04 04:17:59;;;;;;;13.70;6.70;;;;;19.58;97827.40;;;;108923;1267;41172;-65
2022/06/04 04:20:31;;;;;;;19.10;9.90;;;;;20.74;97812.40;;;;108748;1266;41330;-65
2022/06/04 04:23:02;;;;;;;19.70;10.20;;;;;21.90;97812.60;;;;108812;1269;41182;-66
2022/06/04 04:25:32;;;;;;;;;;;;;23.00;97806.20;;;;108843;1267;41385;-66
2022/06/04 04:28:03;;;;;;;15.00;8.00;;;;;24.12;97798.20;;;;108911;1267;41176;-65
2022/06/04 04:30:34;;;;;;;18.30;8.30;;;;;24.96;97791.00;;;;108853;1266;42401;-65
2022/06/04 04:33:05;;;;;;;16.00;8.00;;;;;25.60;97787.20;;;;108768;1268;41974;-66
2022/06/04 04:35:36;;;;;;;14.50;6.90;;;;;25.70;97795.20;;;;108758;1270;41195;-65
2022/06/04 04:38:06;;;;;;;;;;;;;24.62;97804.20;;;;108735;1270;41171;-66
2022/06/04 04:40:35;;;;;;;16.20;7.70;;;;;23.90;97805.00;;;;108820;1267;41210;-66
2022/06/04 04:43:05;;;;;;;13.80;6.80;;;;;23.06;97808.00;;;;108795;1268;41499;-65
2022/06/04 04:45:35;;;;;;;16.10;7.30;;;;;22.48;97815.20;;;;108811;1268;41163;-66
2022/06/04 04:48:05;;;;;;;13.10;6.50;;;;;22.10;97812.80;;;;108871;1269;41159;-65
2022/06/04 04:50:37;;;;;;;15.30;6.60;;;;;21.90;97806.80;;;;108858;1267;42383;-65
2022/06/04 04:53:10;;;;;;;14.10;6.80;;;;;21.96;97802.80;;;;108769;1268;41298;-65
2022/06/04 04:55:46;;;;;;;17.00;7.90;;;;;22.80;97790.60;;;;108789;1267;41325;-66
2022/06/04 04:58:15;;;;;;;13.70;7.20;;;;;23.78;97791.80;;;;108920;1267;41669;-65
2022/06/04 05:00:45;;;;;;;15.90;7.10;;;;;24.30;97796.00;;;;108898;1267;41303;-65
2022/06/04 05:03:18;;;;;;;13.10;6.80;;;;;24.14;97796.60;;;;108740;1270;41852;-66
2022/06/04 05:05:57;;;;;;;16.20;7.00;;;;;23.90;97787.60;;;;108750;1269;41229;-65
2022/06/04 05:08:27;;;;;;;15.80;6.60;;;;;24.50;97761.80;;;;108843;1270;41182;-66
2022/06/04 05:10:57;;;;;;;10.40;5.80;;;;;25.86;97757.60;;;;108674;1270;41414;-66
2022/06/04 05:13:26;;;;;;;10.80;4.80;;;;;27.18;97747.60;;;;108897;1267;41176;-65
2022/06/04 05:15:55;;;;;;;10.00;4.50;;;;;27.16;97751.00;;;;108888;1267;41433;-66
2022/06/04 05:18:24;;;;;;;11.90;4.70;;;;;27.96;97748.20;;;;108868;1269;41169;-66
2022/06/04 05:20:54;;;;;;;8.80;4.10;;;;;28.30;97743.40;;;;108880;1267;41401;-65
2022/06/04 05:23:23;;;;;;;9.40;3.50;;;;;28.92;97745.20;;;;108978;1267;41413;-66
2022/06/04 05:25:52;;;;;;;9.90;3.60;;;;;28.96;97748.40;;;;108813;1267;41191;-65
2022/06/04 05:28:22;;;;;;;10.70;3.40;;;;;28.14;97768.80;;;;108971;1267;41156;-67
2022/06/04 05:30:51;;;;;;;8.90;3.40;;;;;27.00;97782.00;;;;108934;1267;41220;-67
2022/06/04 05:33:20;;;;;;;7.70;2.90;;;;;26.52;97783.60;;;;108818;1267;42423;-64
2022/06/04 05:35:50;;;;;;;7.30;3.20;;;;;25.48;97781.40;;;;108705;1268;41330;-65
2022/06/04 05:38:20;;;;;;;8.30;3.20;;;;;24.98;97776.40;;;;108903;1267;41182;-65
2022/06/04 05:40:51;;;;;;;7.10;3.20;;;;;24.98;97773.60;;;;108830;1267;41261;-66
2022/06/04 05:43:21;;;;;;;7.90;3.30;;;;;24.98;97774.40;;;;108868;1267;41365;-65
2022/06/04 05:45:57;;;;;;;8.30;3.20;;;;;24.88;97772.60;;;;108649;1269;41413;-67
2022/06/04 05:48:26;;;;;;;6.70;3.00;;;;;25.20;97769.80;;;;108694;1267;41778;-67
2022/06/04 05:50:58;;;;;;;7.10;3.20;;;;;25.50;97762.80;;;;108736;1270;41474;-67
2022/06/04 05:53:27;;;;;;;6.00;2.70;;;;;25.70;97763.20;;;;108804;1270;42248;-68
2022/06/04 05:55:56;;;;;;;9.00;3.00;;;;;25.80;97774.20;;;;108865;1267;42418;-66
2022/06/04 05:58:26;;;;;;;7.60;2.70;;;;;25.70;97780.60;;;;108873;1268;41221;-66
2022/06/04 06:00:59;;;;;;;7.50;3.00;;;;;25.70;97776.40;;;;108841;1267;41151;-66
2022/06/04 06:03:29;;;;;;;7.10;3.10;;;;;25.70;97771.40;;;;108937;1267;41408;-66
2022/06/04 06:05:58;;;;;;;6.30;2.70;;;;;25.70;97761.40;;;;108938;1267;41158;-66
2022/06/04 06:08:28;;;;;;;9.50;3.00;;;;;26.08;97755.40;;;;108739;1267;41279;-66
2022/06/04 06:10:58;;;;;;;7.70;2.90;;;;;26.44;97745.00;;;;108823;1266;41206;-67
2022/06/04 06:13:27;;;;;;;6.00;2.50;;;;;27.08;97757.00;;;;108916;1267;41179;-66
2022/06/04 06:15:56;;;;;;;7.10;2.60;;;;;27.98;97750.80;;;;108880;1267;41380;-66
2022/06/04 06:18:26;;;;;;;7.00;3.00;;;;;29.12;97741.60;;;;108948;1267;41180;-66
2022/06/04 06:20:56;;;;;;;8.50;3.10;;;;;29.28;97745.80;;;;108728;1269;41279;-68
2022/06/04 06:23:25;;;;;;;6.20;2.80;;;;;29.30;97751.60;;;;108869;1267;41181;-67
2022/06/04 06:25:55;;;;;;;7.40;3.40;;;;;29.26;97762.20;;;;108768;1268;41183;-65
2022/06/04 06:28:24;;;;;;;8.10;3.20;;;;;29.16;97746.20;;;;108418;1268;435118;-65
2022/06/04 06:30:54;;;;;;;;;;;;;28.72;97750.40;;;;108859;1267;41326;-66
2022/06/04 06:33:24;;;;;;;8.70;2.90;;;;;29.16;97754.80;;;;108870;1266;41548;-66
2022/06/04 06:35:58;;;;;;;7.60;3.40;;;;;28.84;97762.60;;;;108718;1270;41177;-66
2022/06/04 06:38:28;;;;;;;13.20;3.50;;;;;28.28;97759.60;;;;108786;1267;42298;-65
2022/06/04 06:40:59;;;;;;;8.40;3.10;;;;;28.66;97748.00;;;;108800;1269;41176;-65
2022/06/04 06:43:36;;;;;;;7.00;3.00;;;;;28.78;97746.80;;;;108630;1270;41741;-66
2022/06/04 06:46:14;;;;;;;8.20;3.00;;;;;29.54;97744.40;;;;108767;1270;42166;-67
2022/06/04 06:48:45;;;;;;;9.90;3.30;;;;;29.50;97745.40;;;;108752;1270;41760;-67
2022/06/04 06:51:19;;;;;;;8.30;2.70;;;;;29.60;97742.60;;;;108712;1270;41177;-67
2022/06/04 06:53:49;;;;;;;7.00;3.00;;;;;28.94;97743.60;;;;108692;1270;41285;-67
2022/06/04 06:56:21;;;;;;;7.80;3.10;;;;;29.36;97740.80;;;;108681;1270;41712;-67
2022/06/04 06:58:51;;;;;;;9.90;3.40;;;;;29.60;97739.00;;;;108815;1270;41758;-68
2022/06/04 07:01:21;;;;;;;7.30;3.30;;;;;29.40;97741.40;;;;108761;1270;41771;-71
2022/06/04 07:03:51;;;;;;;8.60;3.00;;;;;29.00;97742.20;;;;108886;1270;41665;-76
2022/06/04 07:06:47;;;;;;;7.00;2.80;;;;;28.90;97743.00;;;;108894;1267;41310;-74
2022/06/04 07:09:19;;;;;;;7.70;2.80;;;;;28.60;97744.20;;;;108816;1270;41176;-74
2022/06/04 07:11:48;;;;;;;8.80;3.10;;;;;28.36;97747.80;;;;108924;1270;41231;-72
2022/06/04 07:14:18;;;;;;;7.40;3.20;;;;;28.32;97743.80;;;;108869;1270;41321;-72
2022/06/04 07:16:47;;;;;;;9.70;3.30;;;;;28.08;97745.40;;;;108778;1270;41623;-76
2022/06/04 07:19:17;;;;;;;11.20;3.10;;;;;28.02;97749.40;;;;108726;1270;41302;-76
2022/06/04 07:21:46;;;;;;;10.70;3.50;;;;;27.30;97751.80;;;;108821;1269;41295;-77
2022/06/04 07:24:16;;;;;;;8.80;3.20;;;;;26.72;97755.20;;;;108833;1270;42525;-75
2022/06/04 07:26:46;;;;;;;7.40;3.20;;;;;26.90;97745.00;;;;108901;1270;40781;-76
2022/06/04 07:29:21;;;;;;;5.80;2.80;;;;;27.00;97740.40;;;;108911;1270;41179;-73
2022/06/04 07:31:50;;;;;;;7.60;3.10;;;;;27.30;97736.40;;;;108873;1270;40939;-75
2022/06/04 07:34:19;;;;;;;7.80;3.10;;;;;27.54;97740.40;;;;108815;1270;41968;-73
2022/06/04 07:36:53;;;;;;;7.10;2.90;;;;;27.40;97736.80;;;;108868;1270;42191;-74
2022/06/04 07:39:23;;;;;;;6.60;2.70;;;;;27.40;97738.40;;;;108714;1271;41288;-75
2022/06/04 07:41:53;;;;;;;8.80;3.30;;;;;27.66;97735.80;;;;108639;1269;41605;-75
2022/06/04 07:44:24;;;;;;;5.50;2.60;;;;;27.70;97730.40;;;;108941;1269;42472;-75
2022/06/04 07:46:55;;;;;;;6.70;2.90;;;;;27.94;97726.80;;;;108880;1267;42105;-75
2022/06/04 07:49:24;;;;;;;;;;;;;27.78;97727.80;;;;109053;1267;41182;-74
2022/06/04 07:51:54;;;;;;;7.20;3.10;;;;;27.68;97728.60;;;;109117;1267;41169;-72
2022/06/04 07:54:23;;;;;;;;;;;;;27.86;97727.20;;;;108939;1270;41190;-73
2022/06/04 07:56:54;;;;;;;7.80;3.30;;;;;27.86;97720.20;;;;109104;1268;42756;-73
2022/06/04 07:59:23;;;;;;;;;;;;;27.78;97718.20;;;;109132;1267;41175;-72
2022/06/04 08:01:53;;;;;;;8.30;3.30;;;;;27.80;97721.00;;;;108974;1267;41626;-72
2022/06/04 08:04:22;;;;;;;9.50;3.50;;;;;27.70;97717.40;;;;109022;1270;41895;-72
2022/06/04 08:06:51;;;;;;;8.20;3.20;;;;;27.90;97721.60;;;;108955;1267;42109;-71
2022/06/04 08:09:20;;;;;;;8.30;3.10;;;;;28.00;97722.00;;;;108891;1270;41299;-72
2022/06/04 08:11:49;;;;;;;8.60;3.30;;;;;28.10;97719.60;;;;109018;1267;41271;-71
2022/06/04 08:14:21;;;;;;;8.10;3.50;;;;;28.20;97717.20;;;;108842;1269;41202;-72
2022/06/04 08:16:53;;;;;;;8.10;3.50;;;;;28.40;97710.80;;;;108970;1267;42373;-71
2022/06/04 08:19:24;;;;;;;7.30;3.00;;;;;28.40;97711.20;;;;109091;1267;41931;-72
2022/06/04 08:21:53;;;;;;;6.90;3.00;;;;;28.46;97710.20;;;;108819;1268;41333;-71
2022/06/04 08:24:24;;;;;;;10.60;4.00;;;;;28.58;97709.00;;;;108903;1267;41182;-71
2022/06/04 08:26:58;;;;;;;11.30;3.80;;;;;28.86;97698.60;;;;108909;1270;41577;-70
2022/06/04 08:29:30;;;;;;;10.90;3.40;;;;;29.18;97700.20;;;;108928;1267;41262;-70
2022/06/04 08:32:00;;;;;;;8.50;3.90;;;;;29.24;97695.20;;;;109061;1267;41297;-71
2022/06/04 08:34:30;;;;;;;7.40;3.50;;;;;29.04;97700.60;;;;108986;1267;41977;-70
2022/06/04 08:37:00;;;;;;;8.70;3.80;;;;;28.90;97695.40;;;;108876;1268;41498;-72
2022/06/04 08:39:29;;;;;;;8.30;3.80;;;;;28.70;97695.60;;;;108994;1267;41232;-71
2022/06/04 08:42:13;;;;;;;7.30;3.20;;;;;28.78;97701.80;;;;108906;1267;41506;-71
2022/06/04 08:44:52;;;;;;;8.10;3.40;;;;;28.70;97701.00;;;;109003;1267;41637;-71
2022/06/04 08:47:29;;;;;;;8.90;3.40;;;;;28.92;97698.20;;;;108911;1267;41306;-71
2022/06/04 08:50:19;;;;;;;9.00;3.80;;;;;28.92;97701.00;;;;109060;1268;41281;-72
2022/06/04 08:52:54;;;;;;;;;;;;;29.10;97694.20;;;;108917;1269;41183;-72
2022/06/04 08:58:44;;;;;;;8.20;3.80;;;;;29.16;97696.40;;;;108994;1267;41183;-72
2022/06/04 09:01:25;;;;;;;7.70;3.10;;;;;29.60;97688.20;;;;108956;1268;40946;-72
2022/06/04 09:04:15;;;;;;;6.70;3.00;;;;;29.96;97681.00;;;;108992;1267;40997;-73
2022/06/04 09:07:03;;;;;;;6.70;2.90;;;;;30.44;97680.40;;;;108921;1269;41763;-71
2022/06/04 09:09:43;;;;;;;9.00;3.00;;;;;31.14;97675.20;;;;108993;1267;41861;-71
2022/06/04 09:12:43;;;;;;;7.50;3.30;;;;;31.84;97669.60;;;;108828;1270;41743;-72
2022/06/04 09:15:24;;;;;;;8.70;4.00;;;;;32.68;97663.80;;;;108971;1267;41158;-73
2022/06/04 09:17:54;;;;;;;12.40;4.10;;;;;33.42;97653.60;;;;108957;1268;41425;-72
2022/06/04 09:20:26;;;;;;;;;;;;;34.42;97648.40;;;;108980;1267;40919;-72
2022/06/04 09:23:42;;;;;;;8.70;4.00;;;;;34.50;97647.00;;;;108940;1267;41665;-73
2022/06/04 09:26:14;;;;;;;7.70;3.60;;;;;33.50;97650.80;;;;108738;1272;41701;-73
2022/06/04 09:28:53;;;;;;;7.50;2.60;;;;;32.76;97657.60;;;;108906;1268;41827;-73
2022/06/04 09:31:47;;;;;;;7.00;3.10;;;;;32.30;97654.40;;;;108961;1268;41621;-73
2022/06/04 09:34:28;;;;;;;12.70;4.40;;;;;32.20;97657.40;;;;108966;1267;41281;-72
2022/06/04 09:36:58;;;;;;;34.50;16.70;;;;;31.82;97655.00;;;;108926;1267;41287;-73
2022/06/04 09:39:29;;;;;;;19.00;9.70;;;;;31.30;97656.60;;;;109003;1267;41186;-73
2022/06/04 09:42:10;;;;;;;29.00;16.70;;;;;31.00;97657.60;;;;108916;1268;41167;-72
2022/06/04 09:44:52;;;;;;;15.60;6.40;;;;;31.00;97657.20;;;;108878;1270;42260;-71
2022/06/04 09:47:26;;;;;;;23.60;12.10;;;;;31.10;97656.40;;;;108837;1267;41383;-71
2022/06/04 09:49:59;;;;;;;10.70;4.60;;;;;31.12;97653.40;;;;108945;1266;41178;-72
2022/06/04 09:52:42;;;;;;;12.00;5.40;;;;;31.10;97650.60;;;;108945;1268;41725;-72
2022/06/04 09:55:22;;;;;;;19.00;11.20;;;;;31.30;97652.20;;;;108950;1266;41213;-72
2022/06/04 09:58:00;;;;;;;10.80;4.90;;;;;31.66;97654.00;;;;109040;1269;41973;-72
2022/06/04 10:00:36;;;;;;;13.40;6.30;;;;;31.52;97651.60;;;;109081;1268;41168;-71
2022/06/04 10:03:17;;;;;;;29.50;16.00;;;;;31.00;97651.00;;;;109033;1267;41304;-71
2022/06/04 10:05:55;;;;;;;8.90;4.20;;;;;30.90;97650.40;;;;109078;1267;42691;-72
2022/06/04 10:08:26;;;;;;;9.60;4.40;;;;;30.50;97656.60;;;;108835;1267;41641;-73
2022/06/04 10:11:05;;;;;;;13.00;3.80;;;;;30.22;97656.00;;;;108797;1267;41461;-73
2022/06/04 10:13:43;;;;;;;10.20;3.50;;;;;30.00;97652.20;;;;108845;1268;41285;-72
2022/06/04 10:16:25;;;;;;;10.00;4.20;;;;;29.90;97654.60;;;;108908;1268;41619;-71
2022/06/04 10:18:59;;;;;;;10.60;4.30;;;;;29.80;97651.60;;;;109114;1268;41180;-72
2022/06/04 10:21:34;;;;;;;11.80;4.00;;;;;29.70;97651.80;;;;108904;1267;41178;-71
2022/06/04 10:24:17;;;;;;;10.20;4.30;;;;;29.60;97649.40;;;;108983;1267;41250;-71
2022/06/04 10:27:25;;;;;;;10.20;4.10;;;;;29.50;97651.40;;;;108920;1267;41523;-72
2022/06/04 10:30:10;;;;;;;7.80;3.70;;;;;29.20;97646.00;;;;108839;1267;41279;-71
2022/06/04 10:32:54;;;;;;;9.60;3.50;;;;;29.30;97641.00;;;;108935;1267;41427;-74
2022/06/04 10:35:36;;;;;;;7.50;3.10;;;;;29.60;97634.80;;;;108797;1267;41302;-73
2022/06/04 10:38:04;;;;;;;8.50;3.90;;;;;29.98;97632.20;;;;108955;1267;41206;-73
2022/06/04 10:40:55;;;;;;;6.60;3.00;;;;;30.26;97625.00;;;;108903;1268;41968;-72
2022/06/04 10:43:56;;;;;;;9.00;4.20;;;;;30.70;97621.80;;;;109052;1268;41190;-72
2022/06/04 10:46:41;;;;;;;10.50;3.50;;;;;30.80;97615.60;;;;108941;1268;42096;-73
2022/06/04 10:49:42;;;;;;;11.00;4.60;;;;;30.80;97620.20;;;;108969;1268;41359;-72
2022/06/04 10:52:36;;;;;;;7.30;3.40;;;;;30.42;97613.00;;;;108979;1267;41290;-72
2022/06/04 10:55:23;;;;;;;8.60;3.30;;;;;30.40;97606.80;;;;108979;1268;41031;-76
2022/06/04 10:57:54;;;;;;;7.10;3.10;;;;;30.50;97604.60;;;;108918;1267;41232;-71
2022/06/04 11:00:53;;;;;;;8.20;3.60;;;;;30.82;97595.20;;;;108915;1269;41310;-73
2022/06/04 11:03:33;;;;;;;8.20;3.70;;;;;31.34;97597.00;;;;108921;1268;41758;-71
2022/06/04 11:06:17;;;;;;;7.60;3.50;;;;;31.30;97595.00;;;;108933;1267;40895;-72
2022/06/04 11:08:56;;;;;;;7.60;3.40;;;;;31.30;97592.80;;;;108961;1267;41233;-71
2022/06/04 11:11:33;;;;;;;8.40;3.20;;;;;31.18;97594.40;;;;108700;1270;41192;-73
2022/06/04 11:14:10;;;;;;;8.80;4.00;;;;;31.30;97593.00;;;;108978;1268;40762;-71
2022/06/04 11:16:54;;;;;;;8.50;3.40;;;;;31.30;97592.60;;;;108849;1270;41341;-73
2022/06/04 11:19:32;;;;;;;7.60;3.50;;;;;31.22;97593.80;;;;108879;1267;41220;-74
2022/06/04 11:22:19;;;;;;;9.20;3.70;;;;;31.10;97594.20;;;;109068;1268;41736;-73
2022/06/04 11:24:56;;;;;;;9.10;3.70;;;;;30.94;97592.00;;;;108836;1270;42141;-73
2022/06/04 11:27:32;;;;;;;10.90;3.40;;;;;30.80;97592.60;;;;109016;1267;41171;-72
2022/06/04 11:30:03;;;;;;;9.00;4.00;;;;;30.50;97592.80;;;;108888;1270;41389;-70
2022/06/04 11:32:43;;;;;;;9.80;3.70;;;;;30.30;97595.60;;;;108967;1268;41170;-73
2022/06/04 11:35:21;;;;;;;11.30;3.90;;;;;30.20;97592.20;;;;108899;1268;41752;-73
2022/06/04 11:38:11;;;;;;;8.70;3.70;;;;;30.22;97596.00;;;;108995;1268;41742;-72
2022/06/04 11:40:49;;;;;;;8.70;3.70;;;;;30.06;97595.80;;;;109003;1268;41195;-76
2022/06/04 11:43:33;;;;;;;13.10;4.40;;;;;29.90;97599.00;;;;108838;1267;41749;-74
2022/06/04 11:46:33;;;;;;;7.90;3.60;;;;;29.70;97597.80;;;;108916;1270;41384;-73
2022/06/04 11:49:30;;;;;;;8.90;3.90;;;;;29.60;97595.20;;;;108977;1267;40739;-72
2022/06/04 11:52:23;;;;;;;8.60;3.80;;;;;29.60;97591.00;;;;108952;1268;41688;-71
2022/06/04 11:55:12;;;;;;;8.90;3.80;;;;;29.42;97590.60;;;;108941;1267;41807;-72
2022/06/04 11:57:53;;;;;;;11.00;3.80;;;;;29.30;97584.00;;;;108991;1268;41177;-71
2022/06/04 12:00:31;;;;;;;7.50;3.40;;;;;29.30;97581.80;;;;108903;1268;41272;-73
2022/06/04 12:03:19;;;;;;;7.40;3.50;;;;;29.40;97577.60;;;;108723;1270;41409;-70
2022/06/04 12:05:53;;;;;;;7.50;3.50;;;;;29.60;97572.60;;;;109070;1267;42194;-71
2022/06/04 12:08:31;;;;;;;7.60;3.60;;;;;29.84;97572.00;;;;108970;1267;42359;-73
2022/06/04 12:11:19;;;;;;;9.70;3.90;;;;;30.10;97571.40;;;;108831;1270;41635;-75
2022/06/04 12:14:06;;;;;;;9.50;3.70;;;;;30.20;97562.20;;;;108967;1270;41193;-74
2022/06/04 12:16:40;;;;;;;9.20;4.00;;;;;30.20;97558.40;;;;108862;1269;41181;-75
2022/06/04 12:25:16;;;;;;;9.20;4.20;;;;;30.32;97554.40;;;;108882;1268;41192;-73
2022/06/04 12:27:57;;;;;;;8.80;4.10;;;;;30.30;97549.00;;;;108951;1268;41424;-73
2022/06/04 12:30:42;;;;;;;8.00;3.90;;;;;30.10;97547.20;;;;109015;1267;41186;-72
2022/06/04 12:33:36;;;;;;;7.20;3.30;;;;;30.36;97548.40;;;;108885;1267;42141;-73
2022/06/04 12:36:07;;;;;;;9.70;4.00;;;;;30.62;97542.20;;;;108857;1268;41974;-73
2022/06/04 12:38:39;;;;;;;9.00;4.10;;;;;30.50;97535.80;;;;108819;1270;41176;-72
2022/06/04 12:41:15;;;;;;;8.40;3.60;;;;;30.50;97539.40;;;;108967;1268;41501;-72
2022/06/04 12:43:57;;;;;;;7.70;3.50;;;;;30.60;97535.00;;;;108997;1269;42092;-72
2022/06/04 12:46:29;;;;;;;7.60;3.60;;;;;30.60;97530.00;;;;108854;1270;41173;-72
2022/06/04 12:49:20;;;;;;;9.00;3.80;;;;;30.60;97524.40;;;;108993;1269;41173;-76
2022/06/04 12:52:20;;;;;;;8.00;3.40;;;;;30.60;97517.40;;;;108827;1270;41185;-74
2022/06/04 12:55:21;;;;;;;9.40;3.20;;;;;30.90;97514.40;;;;109054;1267;41296;-72
2022/06/04 12:57:58;;;;;;;8.80;4.20;;;;;31.16;97512.80;;;;108927;1268;41748;-74
2022/06/04 13:00:29;;;;;;;8.60;3.80;;;;;31.30;97512.40;;;;108850;1269;41179;-72
2022/06/04 13:03:09;;;;;;;10.60;4.50;;;;;31.20;97509.40;;;;108951;1269;41304;-71
2022/06/04 13:06:13;;;;;;;10.10;4.70;;;;;31.28;97500.60;;;;108800;1270;41828;-71